Time;durP1;ratioP1;P1;durP2;ratioP2;P2;SDS_P1;SDS_P2;PMS_P1;PMS_P2;Temp;Humidity;BMP_temperature;BMP_pressure;BME280_temperature;BME280_humidity;BME280_pressure;Samples;Min_cycle;Max_cycle;Signal;HPM_P1;HPM_P2
2024/02/15 00:01:58;;;;;;;9.07;4.68;;;10.30;99.90;;;;;;4966928;28;20544;-73
2024/02/15 00:04:24;;;;;;;6.30;4.10;;;10.20;99.90;;;;;;4967490;28;20031;-72
2024/02/15 00:06:50;;;;;;;8.05;4.53;;;10.30;99.90;;;;;;4967553;28;20082;-72
2024/02/15 00:09:16;;;;;;;9.77;4.80;;;10.40;99.90;;;;;;4967771;28;20394;-73
2024/02/15 00:11:42;;;;;;;7.93;4.82;;;10.50;99.90;;;;;;4971236;28;20098;-72
2024/02/15 00:14:08;;;;;;;7.07;4.60;;;10.50;99.90;;;;;;4969538;28;20120;-73
2024/02/15 00:16:38;;;;;;;8.85;5.15;;;10.50;99.90;;;;;;4967335;28;20031;-73
2024/02/15 00:19:03;;;;;;;7.63;5.25;;;10.50;99.90;;;;;;4959401;28;20073;-73
2024/02/15 00:21:29;;;;;;;8.25;5.60;;;10.60;99.90;;;;;;4963171;28;20134;-72
2024/02/15 00:23:56;;;;;;;7.80;5.15;;;10.60;99.90;;;;;;4948419;28;20066;-73
2024/02/15 00:26:22;;;;;;;6.72;4.65;;;10.60;99.90;;;;;;4967368;28;20490;-73
2024/02/15 00:28:49;;;;;;;7.18;4.65;;;10.50;99.90;;;;;;4966284;28;20029;-73
2024/02/15 00:31:14;;;;;;;8.15;5.07;;;10.50;99.90;;;;;;4967520;28;20082;-72
2024/02/15 00:33:40;;;;;;;6.95;5.60;;;10.60;99.90;;;;;;4967773;28;20034;-72
2024/02/15 00:36:06;;;;;;;10.77;5.35;;;10.70;99.90;;;;;;4967757;28;20039;-72
2024/02/15 00:38:32;;;;;;;6.97;4.70;;;10.70;99.90;;;;;;4968030;28;20035;-72
2024/02/15 00:40:58;;;;;;;7.35;5.15;;;10.70;99.90;;;;;;4967397;28;20069;-72
2024/02/15 00:43:26;;;;;;;9.95;5.68;;;10.60;99.90;;;;;;4966462;28;20058;-73
2024/02/15 00:45:52;;;;;;;8.75;5.88;;;10.60;99.90;;;;;;4966664;28;20045;-72
2024/02/15 00:48:18;;;;;;;6.57;4.95;;;10.60;99.90;;;;;;4967856;28;20027;-73
2024/02/15 00:50:44;;;;;;;10.60;5.65;;;10.70;99.90;;;;;;4967744;28;20499;-73
2024/02/15 00:53:10;;;;;;;9.07;5.38;;;10.70;99.90;;;;;;4965554;28;20034;-72
2024/02/15 00:55:36;;;;;;;9.88;5.55;;;10.70;99.90;;;;;;4967325;28;20503;-72
2024/02/15 00:58:02;;;;;;;9.32;5.47;;;10.80;99.90;;;;;;4968812;28;20481;-72
2024/02/15 01:00:28;;;;;;;9.40;5.85;;;10.80;99.90;;;;;;4967346;28;20790;-73
2024/02/15 01:02:55;;;;;;;9.85;6.00;;;10.80;99.90;;;;;;4964572;28;20405;-72
2024/02/15 01:05:21;;;;;;;10.57;5.60;;;10.70;99.90;;;;;;4965663;28;20662;-73
2024/02/15 01:07:50;;;;;;;8.73;5.70;;;10.70;99.90;;;;;;4964677;28;20022;-73
2024/02/15 01:10:17;;;;;;;9.63;6.32;;;10.70;99.90;;;;;;4963901;28;20055;-73
2024/02/15 01:12:44;;;;;;;8.57;5.63;;;10.70;99.90;;;;;;4965636;28;20033;-73
2024/02/15 01:15:09;;;;;;;10.60;6.10;;;10.80;99.90;;;;;;4965838;28;20039;-73
2024/02/15 01:17:35;;;;;;;8.73;5.88;;;10.80;99.90;;;;;;4965867;28;20034;-72
2024/02/15 01:20:01;;;;;;;11.65;6.80;;;10.80;99.90;;;;;;4966592;28;20037;-73
2024/02/15 01:22:27;;;;;;;9.60;5.82;;;10.80;99.90;;;;;;4965875;28;20107;-72
2024/02/15 01:24:53;;;;;;;8.93;6.25;;;10.80;99.90;;;;;;4965737;28;20038;-73
2024/02/15 01:27:19;;;;;;;9.13;6.40;;;10.70;99.90;;;;;;4966469;28;20103;-72
2024/02/15 01:29:45;;;;;;;11.20;6.93;;;10.70;99.90;;;;;;4965962;28;20031;-73
2024/02/15 01:32:11;;;;;;;9.57;6.68;;;10.60;99.90;;;;;;4966157;28;20034;-73
2024/02/15 01:34:37;;;;;;;8.63;6.43;;;10.70;99.90;;;;;;4965743;28;20688;-73
2024/02/15 01:37:03;;;;;;;7.55;5.93;;;10.70;99.90;;;;;;4966535;28;20042;-72
2024/02/15 01:39:29;;;;;;;9.85;6.55;;;10.60;99.90;;;;;;4965761;28;20058;-72
2024/02/15 01:41:56;;;;;;;9.40;6.95;;;10.70;99.90;;;;;;4957200;28;20064;-72
2024/02/15 01:44:24;;;;;;;9.45;6.38;;;10.70;99.90;;;;;;4965666;28;20562;-73
2024/02/15 01:46:54;;;;;;;9.63;6.45;;;10.80;99.90;;;;;;4965547;28;20034;-73
2024/02/15 01:49:23;;;;;;;8.13;6.45;;;10.80;99.90;;;;;;4965520;28;20027;-73
2024/02/15 01:51:52;;;;;;;11.55;5.75;;;10.90;99.90;;;;;;4965184;28;20026;-73
2024/02/15 01:54:19;;;;;;;9.23;5.80;;;10.80;99.90;;;;;;4965718;28;20045;-73
2024/02/15 01:56:45;;;;;;;9.70;6.70;;;10.80;99.90;;;;;;4964496;28;20026;-73
2024/02/15 01:59:14;;;;;;;9.13;6.70;;;10.90;99.90;;;;;;4965384;28;20038;-73
2024/02/15 02:01:41;;;;;;;11.77;6.13;;;11.00;99.90;;;;;;4960430;28;20577;-73
2024/02/15 02:04:08;;;;;;;8.23;5.50;;;11.00;99.90;;;;;;4966130;28;20046;-72
2024/02/15 02:06:37;;;;;;;9.55;5.70;;;11.10;99.90;;;;;;4966411;28;20074;-73
2024/02/15 02:09:03;;;;;;;7.50;5.57;;;11.10;99.90;;;;;;4966074;28;20596;-73
2024/02/15 02:11:29;;;;;;;7.95;5.88;;;11.10;99.90;;;;;;4966010;28;20042;-73
2024/02/15 02:13:56;;;;;;;10.30;5.90;;;11.10;99.90;;;;;;4966126;28;20035;-72
2024/02/15 02:16:28;;;;;;;6.28;5.38;;;11.10;99.90;;;;;;4965310;28;20604;-73
2024/02/15 02:18:58;;;;;;;7.85;5.68;;;11.10;99.90;;;;;;4962555;28;20093;-72
2024/02/15 02:21:35;;;;;;;8.95;6.15;;;11.00;99.90;;;;;;4958283;28;20490;-72
2024/02/15 02:24:07;;;;;;;9.45;5.93;;;10.90;99.90;;;;;;4966368;28;20042;-72
2024/02/15 02:26:37;;;;;;;8.15;6.10;;;11.00;99.90;;;;;;4965750;28;20050;-72
2024/02/15 02:29:07;;;;;;;8.65;5.97;;;11.00;99.90;;;;;;4966402;28;20687;-72
2024/02/15 02:31:36;;;;;;;7.95;5.97;;;11.00;99.90;;;;;;4965101;28;20050;-72
2024/02/15 02:34:03;;;;;;;10.35;5.93;;;11.10;99.90;;;;;;4965436;28;20526;-70
2024/02/15 02:36:29;;;;;;;7.47;5.35;;;11.10;99.90;;;;;;4965462;28;20051;-70
2024/02/15 02:39:00;;;;;;;8.95;5.93;;;11.20;99.90;;;;;;4965871;28;20035;-70
2024/02/15 02:41:28;;;;;;;8.40;5.65;;;11.30;99.90;;;;;;4964723;28;20058;-70
2024/02/15 02:43:56;;;;;;;8.85;5.78;;;11.10;99.90;;;;;;4961717;28;20029;-70
2024/02/15 02:46:21;;;;;;;11.80;6.03;;;11.20;99.90;;;;;;4964188;28;20035;-70
2024/02/15 02:48:47;;;;;;;10.52;5.90;;;11.20;99.90;;;;;;4964678;28;20041;-70
2024/02/15 02:51:13;;;;;;;8.60;5.95;;;11.20;99.90;;;;;;4963924;28;20070;-70
2024/02/15 02:53:39;;;;;;;9.05;6.40;;;11.20;99.90;;;;;;4964285;28;20098;-70
2024/02/15 02:56:05;;;;;;;9.80;6.00;;;11.20;99.90;;;;;;4964439;28;20026;-70
2024/02/15 02:58:31;;;;;;;9.63;5.47;;;11.20;99.90;;;;;;4964353;28;20144;-69
2024/02/15 03:01:00;;;;;;;7.43;5.90;;;11.30;99.90;;;;;;4963923;28;20039;-69
2024/02/15 03:03:26;;;;;;;8.00;6.13;;;11.30;99.90;;;;;;4964918;28;20050;-69
2024/02/15 03:05:53;;;;;;;9.43;6.05;;;11.30;99.90;;;;;;4965030;28;20039;-69
2024/02/15 03:08:20;;;;;;;7.82;5.80;;;11.40;99.90;;;;;;4964486;28;20408;-69
2024/02/15 03:10:46;;;;;;;8.63;5.85;;;11.40;99.90;;;;;;4962039;28;20125;-69
2024/02/15 03:13:12;;;;;;;9.32;5.72;;;11.40;99.90;;;;;;4964209;28;20547;-69
2024/02/15 03:15:38;;;;;;;9.55;6.10;;;11.50;99.90;;;;;;4963763;28;20058;-69
2024/02/15 03:18:07;;;;;;;8.55;5.63;;;11.40;99.90;;;;;;4963824;28;20177;-70
2024/02/15 03:20:33;;;;;;;9.57;6.43;;;11.40;99.90;;;;;;4964135;28;20041;-69
2024/02/15 03:23:00;;;;;;;8.18;5.85;;;11.40;99.90;;;;;;4960376;28;20063;-69
2024/02/15 03:25:28;;;;;;;9.60;6.05;;;11.40;99.90;;;;;;4963266;28;20022;-70
2024/02/15 03:27:56;;;;;;;7.97;5.28;;;11.40;99.90;;;;;;4963009;28;20070;-69
2024/02/15 03:30:26;;;;;;;9.02;6.20;;;11.40;99.90;;;;;;4963245;28;20031;-69
2024/02/15 03:32:53;;;;;;;9.63;6.30;;;11.40;99.90;;;;;;4962227;28;20048;-69
2024/02/15 03:35:22;;;;;;;9.10;5.40;;;11.40;99.90;;;;;;4963033;28;20046;-69
2024/02/15 03:37:51;;;;;;;10.07;5.90;;;11.50;99.90;;;;;;4963549;28;20030;-69
2024/02/15 03:40:19;;;;;;;7.95;5.53;;;11.50;99.90;;;;;;4963408;28;20045;-69
2024/02/15 03:42:45;;;;;;;9.65;6.07;;;11.60;99.90;;;;;;4962824;28;20545;-69
2024/02/15 03:45:12;;;;;;;10.05;5.80;;;11.60;99.90;;;;;;4960819;28;20030;-69
2024/02/15 03:47:38;;;;;;;9.52;6.55;;;11.50;99.90;;;;;;4963613;28;20022;-69
2024/02/15 03:50:09;;;;;;;9.30;5.18;;;11.40;99.90;;;;;;4951503;28;20095;-69
2024/02/15 03:52:36;;;;;;;7.95;6.00;;;11.40;99.90;;;;;;4963028;28;20069;-69
2024/02/15 03:55:02;;;;;;;7.82;5.78;;;11.50;99.90;;;;;;4963383;28;20031;-69
2024/02/15 03:57:28;;;;;;;8.45;5.40;;;11.50;99.90;;;;;;4963389;28;20530;-69
2024/02/15 03:59:57;;;;;;;8.70;5.65;;;11.50;99.90;;;;;;4963555;28;20027;-69
2024/02/15 04:02:26;;;;;;;8.15;5.03;;;11.50;99.90;;;;;;4963019;28;20039;-69
2024/02/15 04:04:54;;;;;;;7.97;5.10;;;11.50;99.90;;;;;;4951207;28;20046;-69
2024/02/15 04:07:21;;;;;;;10.73;6.10;;;11.50;99.90;;;;;;4960958;28;20398;-69
2024/02/15 04:09:48;;;;;;;8.80;5.05;;;11.50;99.90;;;;;;4962808;28;20247;-69
2024/02/15 04:12:14;;;;;;;8.38;5.55;;;11.60;99.90;;;;;;4962190;28;20515;-69
2024/02/15 04:14:41;;;;;;;8.40;5.30;;;11.70;99.90;;;;;;4962993;28;20043;-69
2024/02/15 04:17:07;;;;;;;7.88;5.60;;;11.70;99.90;;;;;;4963390;28;20035;-69
2024/02/15 04:19:33;;;;;;;8.32;5.60;;;11.70;99.90;;;;;;4964089;28;20706;-72
2024/02/15 04:22:07;;;;;;;6.97;5.38;;;11.80;99.90;;;;;;4963377;28;20031;-72
2024/02/15 04:24:34;;;;;;;9.75;5.32;;;11.80;99.90;;;;;;4963320;28;20038;-72
2024/02/15 04:27:00;;;;;;;9.55;6.20;;;11.70;99.90;;;;;;4962131;28;20101;-72
2024/02/15 04:29:26;;;;;;;10.63;6.10;;;11.80;99.90;;;;;;4963052;28;20042;-73
2024/02/15 04:31:54;;;;;;;9.35;6.20;;;11.60;99.90;;;;;;4963172;28;20126;-69
2024/02/15 04:34:20;;;;;;;9.10;5.63;;;11.50;99.90;;;;;;4962739;28;20125;-69
2024/02/15 04:36:53;;;;;;;9.73;6.20;;;11.40;99.90;;;;;;4963145;28;20038;-69
2024/02/15 04:39:24;;;;;;;9.45;6.60;;;11.30;99.90;;;;;;4961143;28;20032;-69
2024/02/15 04:41:53;;;;;;;9.27;5.70;;;11.20;99.90;;;;;;4964946;28;20042;-69
2024/02/15 04:44:26;;;;;;;11.90;6.72;;;11.20;99.90;;;;;;4966541;28;20046;-69
2024/02/15 04:46:55;;;;;;;10.45;6.20;;;11.20;99.90;;;;;;4965473;28;20031;-70
2024/02/15 04:49:22;;;;;;;8.55;5.80;;;11.30;99.90;;;;;;4967037;28;20034;-70
2024/02/15 04:51:48;;;;;;;7.85;5.50;;;11.40;99.90;;;;;;4966531;28;20065;-70
2024/02/15 04:54:14;;;;;;;9.60;6.20;;;11.40;99.90;;;;;;4966458;28;20072;-70
2024/02/15 04:56:41;;;;;;;10.18;6.25;;;11.40;99.90;;;;;;4966329;28;20435;-70
2024/02/15 04:59:15;;;;;;;8.70;6.07;;;11.50;99.90;;;;;;4966466;28;20043;-70
2024/02/15 05:01:45;;;;;;;10.65;6.50;;;11.40;99.90;;;;;;4965811;28;20037;-70
2024/02/15 05:04:11;;;;;;;10.23;6.38;;;11.30;99.90;;;;;;4961930;28;20031;-70
2024/02/15 05:06:38;;;;;;;11.07;5.95;;;11.40;99.90;;;;;;4948394;28;20042;-70
2024/02/15 05:09:07;;;;;;;9.23;5.95;;;11.50;99.90;;;;;;4966579;28;20031;-70
2024/02/15 05:11:36;;;;;;;9.02;5.63;;;11.40;99.90;;;;;;4966001;28;20038;-70
2024/02/15 05:14:07;;;;;;;9.98;6.22;;;11.50;99.90;;;;;;4965867;28;20482;-70
2024/02/15 05:16:33;;;;;;;12.13;6.50;;;11.60;99.90;;;;;;4965491;28;20042;-69
2024/02/15 05:19:00;;;;;;;9.75;6.00;;;11.60;99.90;;;;;;4967138;28;20045;-70
2024/02/15 05:21:26;;;;;;;8.23;5.70;;;11.70;99.90;;;;;;4966386;28;20039;-70
2024/02/15 05:23:52;;;;;;;10.23;6.78;;;11.70;99.90;;;;;;4965857;28;20030;-70
2024/02/15 05:26:23;;;;;;;10.00;6.13;;;11.40;99.90;;;;;;4967189;28;20018;-70
2024/02/15 05:28:49;;;;;;;9.20;6.05;;;11.40;99.90;;;;;;4966599;28;20031;-70
2024/02/15 05:31:19;;;;;;;8.95;5.75;;;11.40;99.90;;;;;;4965863;28;20042;-70
2024/02/15 05:33:53;;;;;;;10.63;6.97;;;11.40;99.90;;;;;;4966315;28;20053;-70
2024/02/15 05:36:20;;;;;;;10.43;6.85;;;11.40;99.90;;;;;;4965658;28;20031;-70
2024/02/15 05:38:51;;;;;;;10.25;6.35;;;11.50;99.90;;;;;;4965581;28;20039;-70
2024/02/15 05:41:17;;;;;;;10.27;6.00;;;11.50;99.90;;;;;;4964991;28;20041;-70
2024/02/15 05:43:43;;;;;;;9.82;5.50;;;11.60;99.90;;;;;;4966382;28;20105;-70
2024/02/15 05:46:10;;;;;;;9.48;6.03;;;11.60;99.90;;;;;;4962907;28;20031;-69
2024/02/15 05:48:39;;;;;;;9.07;5.93;;;11.70;99.90;;;;;;4966690;28;20034;-70
2024/02/15 05:51:07;;;;;;;7.07;5.03;;;11.70;99.90;;;;;;4966552;28;20041;-73
2024/02/15 05:53:37;;;;;;;10.00;6.35;;;11.80;99.90;;;;;;4965606;28;20030;-72
2024/02/15 05:56:08;;;;;;;11.07;5.78;;;11.80;99.90;;;;;;4960062;28;20039;-73
2024/02/15 05:58:35;;;;;;;10.57;6.25;;;11.80;99.90;;;;;;4966186;28;20027;-70
2024/02/15 06:01:04;;;;;;;8.75;5.88;;;11.80;99.90;;;;;;4965913;28;20122;-70
2024/02/15 06:03:37;;;;;;;8.85;5.60;;;11.80;99.90;;;;;;4964096;28;20042;-70
2024/02/15 06:06:06;;;;;;;8.27;5.18;;;11.80;99.90;;;;;;4966340;28;20034;-70
2024/02/15 06:08:36;;;;;;;7.90;5.57;;;11.90;99.90;;;;;;4964867;28;20150;-70
2024/02/15 06:11:03;;;;;;;7.55;5.32;;;11.90;99.90;;;;;;4965104;28;20038;-70
2024/02/15 06:13:30;;;;;;;9.48;6.70;;;11.80;99.90;;;;;;4965281;28;20034;-70
2024/02/15 06:15:56;;;;;;;8.70;5.45;;;11.90;99.90;;;;;;4965857;28;20035;-70
2024/02/15 06:18:29;;;;;;;8.65;5.22;;;11.80;99.90;;;;;;4965524;28;20828;-70
2024/02/15 06:21:02;;;;;;;8.20;5.68;;;11.90;99.90;;;;;;4965300;28;20035;-70
2024/02/15 06:23:28;;;;;;;9.15;5.75;;;11.80;99.90;;;;;;4957747;28;20060;-70
2024/02/15 06:26:01;;;;;;;8.23;5.90;;;11.70;99.90;;;;;;4966165;28;20030;-70
2024/02/15 06:39:41;;;;;;;11.38;6.00;;;11.80;99.90;;;;;;4965784;28;20034;-72
2024/02/15 06:42:19;;;;;;;10.18;5.70;;;11.80;99.90;;;;;;4964893;28;20802;-72
2024/02/15 06:44:47;;;;;;;8.27;5.45;;;11.80;99.90;;;;;;4965236;28;20089;-73
2024/02/15 06:47:15;;;;;;;7.93;5.43;;;11.80;99.90;;;;;;4965461;28;20049;-73
2024/02/15 06:49:41;;;;;;;9.05;5.85;;;11.90;99.90;;;;;;4965144;28;20576;-73
2024/02/15 06:52:11;;;;;;;8.88;5.90;;;11.90;99.90;;;;;;4965075;28;20039;-72
2024/02/15 06:54:40;;;;;;;8.50;5.50;;;11.90;99.90;;;;;;4965820;28;20511;-72
2024/02/15 06:57:07;;;;;;;7.57;5.18;;;12.00;99.90;;;;;;4962927;28;20045;-70
2024/02/15 06:59:34;;;;;;;7.45;5.30;;;12.00;99.90;;;;;;4961702;28;20050;-70
2024/02/15 07:02:01;;;;;;;8.25;5.88;;;12.00;99.90;;;;;;4961558;28;20430;-70
2024/02/15 07:04:27;;;;;;;8.25;5.43;;;12.10;99.90;;;;;;4961354;28;20144;-70
2024/02/15 07:06:54;;;;;;;10.23;5.97;;;12.10;99.90;;;;;;4963462;28;20035;-70
2024/02/15 07:09:24;;;;;;;6.95;5.13;;;12.00;99.90;;;;;;4963581;28;20049;-70
2024/02/15 07:11:51;;;;;;;10.90;5.20;;;12.00;99.90;;;;;;4963982;28;20066;-70
2024/02/15 07:14:17;;;;;;;8.50;5.50;;;12.00;99.90;;;;;;4964086;28;20038;-70
2024/02/15 07:16:47;;;;;;;7.18;4.75;;;12.10;99.90;;;;;;4964377;28;20034;-70
2024/02/15 07:19:13;;;;;;;10.07;5.07;;;12.10;99.90;;;;;;4963648;28;20031;-70
2024/02/15 07:21:40;;;;;;;8.05;5.63;;;12.10;99.90;;;;;;4963606;28;20822;-70
2024/02/15 07:24:06;;;;;;;10.55;5.35;;;12.10;99.90;;;;;;4963890;28;20030;-70
2024/02/15 07:26:34;;;;;;;7.85;5.50;;;12.10;99.90;;;;;;4963784;28;20031;-72
2024/02/15 07:29:00;;;;;;;7.53;5.20;;;12.10;99.90;;;;;;4962109;28;20026;-71
2024/02/15 07:31:29;;;;;;;7.93;4.97;;;12.10;99.90;;;;;;4963464;28;20513;-73
2024/02/15 07:33:55;;;;;;;9.40;5.18;;;12.00;99.90;;;;;;4962469;28;20034;-73
2024/02/15 07:36:22;;;;;;;8.13;5.00;;;12.10;99.90;;;;;;4941869;28;20113;-72
2024/02/15 07:38:51;;;;;;;8.07;5.65;;;12.00;99.90;;;;;;4964071;28;20784;-72
2024/02/15 07:41:24;;;;;;;8.63;5.53;;;12.00;99.90;;;;;;4963322;28;20042;-71
2024/02/15 07:43:50;;;;;;;8.02;4.93;;;12.00;99.90;;;;;;4961957;28;20152;-72
2024/02/15 07:46:16;;;;;;;9.15;5.13;;;12.00;99.90;;;;;;4963797;28;20022;-73
2024/02/15 07:48:46;;;;;;;8.27;5.30;;;12.00;99.90;;;;;;4963195;28;20100;-73
2024/02/15 07:51:20;;;;;;;7.90;5.05;;;12.00;99.90;;;;;;4962671;28;20710;-73
2024/02/15 07:53:46;;;;;;;7.25;4.85;;;12.00;99.90;;;;;;4963267;28;20059;-73
2024/02/15 07:56:13;;;;;;;9.95;6.07;;;12.00;99.90;;;;;;4963117;28;20113;-73
2024/02/15 07:58:46;;;;;;;8.93;5.53;;;12.10;99.90;;;;;;4962367;28;20141;-72
2024/02/15 08:01:13;;;;;;;8.35;5.60;;;11.90;99.90;;;;;;4964083;28;20035;-74
2024/02/15 08:03:44;;;;;;;8.73;4.97;;;12.00;99.90;;;;;;4963404;28;20446;-73
2024/02/15 08:06:14;;;;;;;9.18;5.65;;;12.10;99.90;;;;;;4962228;28;20069;-73
2024/02/15 08:08:45;;;;;;;9.43;5.57;;;12.20;99.90;;;;;;4966622;28;20518;-72
2024/02/15 08:11:15;;;;;;;9.07;5.00;;;12.30;99.90;;;;;;4963170;28;20105;-72
2024/02/15 08:13:49;;;;;;;8.43;5.25;;;12.20;99.90;;;;;;4961636;28;20039;-74
2024/02/15 08:16:22;;;;;;;9.55;5.75;;;12.30;99.90;;;;;;4962273;28;20066;-69
2024/02/15 08:18:52;;;;;;;11.23;6.82;;;12.40;99.90;;;;;;4966464;28;20513;-70
2024/02/15 08:21:20;;;;;;;8.85;5.50;;;12.40;99.90;;;;;;4966515;28;20031;-69
2024/02/15 08:23:46;;;;;;;8.15;5.63;;;12.20;99.90;;;;;;4966576;28;20030;-70
2024/02/15 08:26:12;;;;;;;11.93;5.68;;;12.20;99.90;;;;;;4966490;28;20042;-73
2024/02/15 08:28:38;;;;;;;7.25;4.60;;;12.10;99.90;;;;;;4965560;28;20097;-75
2024/02/15 08:31:04;;;;;;;9.80;5.22;;;12.10;99.90;;;;;;4967271;28;20538;-74
2024/02/15 08:33:31;;;;;;;7.47;5.10;;;12.30;99.90;;;;;;4966499;28;20070;-74
2024/02/15 08:35:57;;;;;;;9.27;5.28;;;12.40;99.90;;;;;;4967415;28;20031;-73
2024/02/15 08:38:23;;;;;;;8.57;5.15;;;12.50;99.90;;;;;;4966967;28;20061;-72
2024/02/15 08:40:49;;;;;;;8.25;5.13;;;12.60;99.90;;;;;;4966825;28;20122;-74
2024/02/15 08:43:15;;;;;;;11.60;4.68;;;12.70;99.90;;;;;;4967023;28;20117;-72
2024/02/15 08:45:42;;;;;;;8.93;5.00;;;12.70;99.90;;;;;;4968252;28;20046;-73
2024/02/15 08:48:08;;;;;;;5.93;4.25;;;12.80;99.90;;;;;;4967811;28;20106;-73
2024/02/15 08:50:34;;;;;;;6.72;4.20;;;12.90;99.90;;;;;;4966643;28;20077;-70
2024/02/15 08:53:00;;;;;;;6.45;4.43;;;12.90;99.90;;;;;;4966802;28;20066;-73
2024/02/15 08:55:27;;;;;;;5.75;4.30;;;13.00;99.90;;;;;;4967387;28;20125;-76
2024/02/15 08:57:54;;;;;;;10.65;6.57;;;12.90;99.90;;;;;;4966093;28;20117;-67
2024/02/15 09:00:20;;;;;;;8.35;4.38;;;12.80;99.90;;;;;;4965344;28;20042;-74
2024/02/15 09:02:47;;;;;;;5.28;3.35;;;13.00;99.90;;;;;;4965290;28;20503;-73
2024/02/15 09:05:14;;;;;;;5.43;3.72;;;13.00;99.90;;;;;;4966733;28;20054;-73
2024/02/15 09:07:47;;;;;;;4.72;3.95;;;13.10;99.90;;;;;;4966622;28;20077;-73
2024/02/15 09:10:22;;;;;;;6.45;4.18;;;13.10;99.90;;;;;;4950186;28;20122;-73
2024/02/15 09:12:48;;;;;;;5.55;3.90;;;13.10;99.90;;;;;;4966020;28;20035;-74
2024/02/15 09:15:15;;;;;;;4.22;3.53;;;13.20;99.90;;;;;;4966824;28;20031;-74
2024/02/15 09:17:43;;;;;;;6.95;4.57;;;13.10;99.90;;;;;;4966973;28;20117;-74
2024/02/15 09:20:20;;;;;;;5.35;3.15;;;13.20;99.90;;;;;;4966764;28;20062;-73
2024/02/15 09:22:56;;;;;;;6.05;3.85;;;13.40;99.90;;;;;;4965038;28;20026;-74
2024/02/15 09:25:26;;;;;;;7.70;4.00;;;13.50;99.90;;;;;;4964165;28;20049;-75
2024/02/15 09:27:53;;;;;;;4.65;3.58;;;13.60;99.90;;;;;;4963612;28;20035;-74
2024/02/15 09:30:19;;;;;;;4.10;3.33;;;13.60;99.90;;;;;;4949598;28;20037;-73
2024/02/15 09:32:45;;;;;;;4.80;3.42;;;13.70;99.90;;;;;;4965938;28;20031;-73
2024/02/15 09:35:14;;;;;;;8.77;2.92;;;13.80;99.90;;;;;;4965404;28;20030;-74
2024/02/15 09:37:52;;;;;;;3.13;2.50;;;13.70;99.90;;;;;;4966296;28;20030;-73
2024/02/15 09:40:18;;;;;;;8.23;3.25;;;13.60;99.90;;;;;;4966539;28;20027;-76
2024/02/15 09:42:45;;;;;;;3.97;3.20;;;13.70;99.90;;;;;;4964171;28;20142;-76
2024/02/15 09:45:12;;;;;;;3.95;3.05;;;13.80;99.90;;;;;;4966869;28;20042;-76
2024/02/15 09:47:42;;;;;;;6.07;3.65;;;13.90;99.90;;;;;;4962915;28;20641;-77
2024/02/15 09:50:10;;;;;;;6.60;3.10;;;13.80;99.90;;;;;;4964085;28;20049;-75
2024/02/15 09:52:40;;;;;;;3.83;2.88;;;13.50;99.90;;;;;;4967206;28;20035;-76
2024/02/15 09:55:12;;;;;;;4.30;3.08;;;13.40;99.90;;;;;;4950501;28;20047;-76
2024/02/15 09:57:39;;;;;;;4.18;2.85;;;13.50;99.90;;;;;;4967488;28;20036;-73
2024/02/15 10:00:13;;;;;;;4.75;2.80;;;13.40;99.90;;;;;;4949230;28;20089;-75
2024/02/15 10:02:40;;;;;;;4.18;2.47;;;13.30;99.90;;;;;;4965818;28;20505;-75
2024/02/15 10:05:11;;;;;;;3.10;2.50;;;13.40;99.90;;;;;;4966896;28;20092;-74
2024/02/15 10:07:44;;;;;;;5.78;2.97;;;13.50;99.90;;;;;;4966081;28;20068;-74
2024/02/15 10:10:19;;;;;;;3.13;2.50;;;13.50;99.90;;;;;;4965858;28;20509;-74
2024/02/15 10:12:54;;;;;;;3.58;2.75;;;13.40;99.90;;;;;;4966041;28;20093;-74
2024/02/15 10:15:35;;;;;;;3.42;2.58;;;13.40;99.90;;;;;;4980114;28;20045;-74
2024/02/15 10:18:03;;;;;;;5.25;2.45;;;13.50;99.90;;;;;;4965777;28;20443;-71
2024/02/15 10:20:30;;;;;;;4.60;2.40;;;13.70;99.90;;;;;;4965490;28;20045;-78
2024/02/15 10:22:58;;;;;;;3.42;2.53;;;13.80;99.90;;;;;;4964196;28;20035;-71
2024/02/15 10:25:27;;;;;;;4.45;2.55;;;13.80;99.90;;;;;;4965200;28;20030;-72
2024/02/15 10:28:06;;;;;;;2.85;2.30;;;14.00;99.90;;;;;;4963289;28;20118;-75
2024/02/15 10:30:34;;;;;;;2.67;2.10;;;13.80;99.90;;;;;;4968541;28;20031;-75
2024/02/15 10:33:01;;;;;;;3.00;2.08;;;13.70;99.90;;;;;;4964931;28;20030;-75
2024/02/15 10:35:28;;;;;;;2.47;2.00;;;13.80;99.90;;;;;;4965628;28;20442;-74
2024/02/15 10:38:12;;;;;;;2.13;1.70;;;14.00;99.90;;;;;;4969425;28;20030;-74
2024/02/15 10:40:43;;;;;;;2.70;1.90;;;14.20;99.90;;;;;;4964350;28;21404;-75
2024/02/15 10:43:13;;;;;;;4.00;1.80;;;14.30;99.90;;;;;;4963816;28;20069;-75
2024/02/15 10:45:40;;;;;;;7.05;1.92;;;14.50;99.90;;;;;;4965069;28;20546;-74
2024/02/15 10:48:10;;;;;;;2.42;1.90;;;14.40;99.90;;;;;;4965155;28;20033;-74
2024/02/15 10:50:41;;;;;;;3.83;1.90;;;14.40;99.90;;;;;;4965222;28;20023;-75
2024/02/15 10:53:23;;;;;;;4.07;2.33;;;14.40;99.90;;;;;;4964893;28;20605;-75
2024/02/15 10:56:10;;;;;;;6.78;2.85;;;14.40;99.90;;;;;;4975348;28;20031;-76
2024/02/15 10:58:47;;;;;;;7.60;3.20;;;14.20;99.90;;;;;;4954535;28;20056;-74
2024/02/15 11:01:17;;;;;;;4.13;2.30;;;14.30;99.90;;;;;;4964024;28;20037;-74
2024/02/15 11:04:00;;;;;;;2.22;1.95;;;14.40;99.90;;;;;;4964740;28;20046;-74
2024/02/15 11:06:33;;;;;;;5.53;2.08;;;14.30;99.90;;;;;;4964972;28;20082;-74
2024/02/15 11:09:00;;;;;;;2.78;2.10;;;14.40;99.90;;;;;;4964674;28;20053;-75
2024/02/15 11:11:27;;;;;;;2.17;1.80;;;14.40;99.90;;;;;;4964469;28;20062;-75
2024/02/15 11:14:25;;;;;;;2.42;1.95;;;14.20;99.90;;;;;;4964991;28;20057;-74
2024/02/15 11:16:51;;;;;;;3.45;1.70;;;14.00;99.90;;;;;;4963929;28;20054;-75
2024/02/15 11:19:35;;;;;;;2.83;2.13;;;13.90;99.90;;;;;;4963480;28;20081;-74
2024/02/15 11:22:09;;;;;;;1.48;1.35;;;13.90;99.90;;;;;;4965773;28;20525;-75
2024/02/15 11:24:38;;;;;;;2.47;1.73;;;13.80;99.90;;;;;;4964196;28;20041;-76
2024/02/15 11:27:07;;;;;;;6.93;2.00;;;13.90;99.90;;;;;;4961857;28;20133;-75
2024/02/15 11:30:09;;;;;;;4.45;2.00;;;13.90;99.90;;;;;;4965406;28;20027;-75
2024/02/15 11:32:51;;;;;;;1.98;1.63;;;13.80;99.90;;;;;;4962599;28;20034;-74
2024/02/15 11:35:22;;;;;;;3.75;2.05;;;13.90;99.90;;;;;;4964018;28;20031;-76
2024/02/15 11:37:55;;;;;;;6.20;2.38;;;14.00;99.90;;;;;;4964844;28;20038;-73
2024/02/15 11:40:27;;;;;;;4.15;2.17;;;14.10;99.90;;;;;;4963236;28;20066;-74
2024/02/15 11:43:35;;;;;;;2.63;1.75;;;14.20;99.90;;;;;;4964496;28;20077;-74
2024/02/15 11:46:02;;;;;;;4.25;2.10;;;14.10;99.90;;;;;;4960098;28;20475;-74
2024/02/15 11:48:28;;;;;;;2.33;1.92;;;14.20;99.90;;;;;;4963252;28;20054;-73
2024/02/15 11:50:54;;;;;;;3.05;1.70;;;14.30;99.90;;;;;;4963385;28;20088;-74
2024/02/15 11:53:20;;;;;;;3.10;1.90;;;14.40;99.90;;;;;;4963802;28;20662;-73
2024/02/15 11:55:46;;;;;;;3.05;1.95;;;14.50;99.90;;;;;;4962269;28;20035;-76
2024/02/15 12:20:00;;;;;;;2.38;1.45;;;14.90;99.90;;;;;;4963089;28;20039;-75
2024/02/15 12:22:44;;;;;;;2.13;1.50;;;15.00;99.90;;;;;;4962544;28;20041;-75
2024/02/15 12:25:20;;;;;;;2.20;1.42;;;15.10;99.90;;;;;;4962058;28;20027;-75
2024/02/15 12:27:52;;;;;;;1.60;1.40;;;15.10;99.90;;;;;;4962502;28;20043;-74
2024/02/15 12:30:22;;;;;;;2.90;1.27;;;15.20;99.90;;;;;;4948733;28;20051;-75
2024/02/15 12:32:52;;;;;;;1.52;1.05;;;15.10;99.90;;;;;;4961384;28;20027;-75
2024/02/15 12:35:25;;;;;;;0.98;0.88;;;15.10;99.90;;;;;;4963247;28;20039;-75
2024/02/15 12:38:05;;;;;;;1.30;1.20;;;15.20;99.90;;;;;;4961157;28;20196;-75
2024/02/15 12:40:32;;;;;;;2.90;0.82;;;15.20;99.90;;;;;;4951867;28;20042;-75
2024/02/15 12:42:59;;;;;;;0.80;0.77;;;15.30;99.90;;;;;;4952337;28;20503;-75
2024/02/15 12:45:28;;;;;;;6.50;1.23;;;15.30;99.90;;;;;;4956370;28;20210;-74
2024/02/15 12:47:54;;;;;;;3.22;0.70;;;15.30;99.90;;;;;;4963098;28;20027;-75
2024/02/15 12:50:21;;;;;;;0.77;0.77;;;15.30;99.90;;;;;;4958025;28;20047;-75
2024/02/15 12:52:53;;;;;;;1.42;0.77;;;15.30;99.90;;;;;;4954928;28;20035;-75
2024/02/15 12:55:20;;;;;;;3.38;0.90;;;15.40;99.90;;;;;;4963809;28;20035;-75
2024/02/15 12:57:55;;;;;;;2.17;0.90;;;15.50;99.90;;;;;;4962040;28;20030;-74
2024/02/15 13:00:28;;;;;;;1.15;0.90;;;15.50;99.90;;;;;;4963140;28;20554;-75
2024/02/15 13:02:55;;;;;;;0.73;0.63;;;15.50;99.90;;;;;;4962731;28;20034;-75
2024/02/15 13:05:23;;;;;;;2.42;0.70;;;15.50;99.90;;;;;;4967040;28;20023;-75
2024/02/15 13:07:54;;;;;;;1.05;0.90;;;15.50;99.90;;;;;;4966368;28;20030;-75
2024/02/15 13:10:21;;;;;;;3.08;1.08;;;15.50;99.90;;;;;;4966760;28;20131;-75
2024/02/15 13:12:48;;;;;;;1.42;1.20;;;15.60;99.90;;;;;;4966025;28;20053;-75
2024/02/15 13:15:17;;;;;;;2.03;1.25;;;15.60;99.90;;;;;;4966778;28;20026;-75
2024/02/15 13:17:48;;;;;;;2.08;1.17;;;15.60;99.90;;;;;;4967269;28;20073;-75
2024/02/15 13:20:15;;;;;;;2.75;1.10;;;15.60;99.90;;;;;;4966520;28;20144;-75
2024/02/15 13:22:43;;;;;;;2.22;1.00;;;15.60;99.90;;;;;;4965575;28;20022;-75
2024/02/15 13:25:10;;;;;;;2.33;1.30;;;15.60;99.90;;;;;;4966426;28;20564;-75
2024/02/15 13:27:40;;;;;;;1.05;0.90;;;15.70;99.90;;;;;;4966847;28;20402;-75